sensor_id;sensor_type;location;lat;lon;timestamp;pressure;altitude;pressure_sealevel;temperature;humidity
71964;BME280;59834;52.124;5.422;2023-02-28T00:00:36;103266.25;;;0.93;89.00
71964;BME280;59834;52.124;5.422;2023-02-28T00:03:03;103260.22;;;0.93;89.13
71964;BME280;59834;52.124;5.422;2023-02-28T00:05:30;103249.91;;;0.93;89.32
71964;BME280;59834;52.124;5.422;2023-02-28T00:07:57;103258.56;;;0.95;88.68
71964;BME280;59834;52.124;5.422;2023-02-28T00:10:33;103268.06;;;0.98;88.85
71964;BME280;59834;52.124;5.422;2023-02-28T00:13:02;103261.19;;;1.00;89.16
71964;BME280;59834;52.124;5.422;2023-02-28T00:15:29;103268.13;;;1.04;88.70
71964;BME280;59834;52.124;5.422;2023-02-28T00:17:56;103273.28;;;1.04;88.92
71964;BME280;59834;52.124;5.422;2023-02-28T00:20:22;103270.72;;;1.05;88.89
71964;BME280;59834;52.124;5.422;2023-02-28T00:22:52;103273.31;;;1.07;89.47
71964;BME280;59834;52.124;5.422;2023-02-28T00:25:22;103275.09;;;1.08;89.30
71964;BME280;59834;52.124;5.422;2023-02-28T00:27:49;103269.06;;;1.10;89.26
71964;BME280;59834;52.124;5.422;2023-02-28T00:30:21;103276.81;;;1.10;89.13
71964;BME280;59834;52.124;5.422;2023-02-28T00:32:50;103271.69;;;1.13;89.53
71964;BME280;59834;52.124;5.422;2023-02-28T00:35:16;103266.59;;;1.15;89.46
71964;BME280;59834;52.124;5.422;2023-02-28T00:37:43;103260.56;;;1.16;89.71
71964;BME280;59834;52.124;5.422;2023-02-28T00:40:10;103269.22;;;1.20;90.10
71964;BME280;59834;52.124;5.422;2023-02-28T00:42:38;103264.09;;;1.21;89.02
71964;BME280;59834;52.124;5.422;2023-02-28T00:45:05;103266.69;;;1.21;89.84
71964;BME280;59834;52.124;5.422;2023-02-28T00:47:32;103266.72;;;1.24;88.49
71964;BME280;59834;52.124;5.422;2023-02-28T00:49:59;103264.16;;;1.26;88.90
71964;BME280;59834;52.124;5.422;2023-02-28T00:52:26;103265.06;;;1.28;89.49
71964;BME280;59834;52.124;5.422;2023-02-28T00:54:53;103252.97;;;1.27;89.92
71964;BME280;59834;52.124;5.422;2023-02-28T00:57:20;103263.28;;;1.27;89.71
71964;BME280;59834;52.124;5.422;2023-02-28T00:59:46;103253.00;;;1.28;89.14
71964;BME280;59834;52.124;5.422;2023-02-28T01:02:13;103261.66;;;1.32;88.97
71964;BME280;59834;52.124;5.422;2023-02-28T01:04:39;103262.53;;;1.32;89.09
71964;BME280;59834;52.124;5.422;2023-02-28T01:07:06;103258.22;;;1.33;88.90
71964;BME280;59834;52.124;5.422;2023-02-28T01:09:33;103259.94;;;1.32;89.06
71964;BME280;59834;52.124;5.422;2023-02-28T01:11:59;103260.81;;;1.33;89.61
71964;BME280;59834;52.124;5.422;2023-02-28T01:14:26;103260.00;;;1.35;88.67
71964;BME280;59834;52.124;5.422;2023-02-28T01:16:52;103263.44;;;1.37;88.95
71964;BME280;59834;52.124;5.422;2023-02-28T01:19:19;103253.16;;;1.40;89.06
71964;BME280;59834;52.124;5.422;2023-02-28T01:21:46;103261.81;;;1.42;89.14
71964;BME280;59834;52.124;5.422;2023-02-28T01:24:13;103263.53;;;1.44;89.79
71964;BME280;59834;52.124;5.422;2023-02-28T01:26:40;103255.78;;;1.44;88.44
71964;BME280;59834;52.124;5.422;2023-02-28T01:29:06;103256.69;;;1.46;88.79
71964;BME280;59834;52.124;5.422;2023-02-28T01:31:33;103251.53;;;1.46;89.22
71964;BME280;59834;52.124;5.422;2023-02-28T01:34:00;103252.38;;;1.46;89.81
71964;BME280;59834;52.124;5.422;2023-02-28T01:36:27;103246.34;;;1.46;89.50
71964;BME280;59834;52.124;5.422;2023-02-28T01:38:53;103251.53;;;1.46;90.04
71964;BME280;59834;52.124;5.422;2023-02-28T01:41:26;103251.53;;;1.46;89.70
71964;BME280;59834;52.124;5.422;2023-02-28T01:43:58;103249.84;;;1.48;88.91
71964;BME280;59834;52.124;5.422;2023-02-28T01:46:25;103249.84;;;1.48;88.84
71964;BME280;59834;52.124;5.422;2023-02-28T01:49:03;103249.84;;;1.49;89.40
71964;BME280;59834;52.124;5.422;2023-02-28T01:51:37;103243.81;;;1.49;88.37
71964;BME280;59834;52.124;5.422;2023-02-28T01:54:09;103244.69;;;1.49;88.57
71964;BME280;59834;52.124;5.422;2023-02-28T01:56:47;103241.25;;;1.50;88.72
71964;BME280;59834;52.124;5.422;2023-02-28T01:59:22;103238.66;;;1.50;88.40
71964;BME280;59834;52.124;5.422;2023-02-28T02:01:50;103230.06;;;1.50;88.91
71964;BME280;59834;52.124;5.422;2023-02-28T02:04:17;103223.13;;;1.47;89.50
71964;BME280;59834;52.124;5.422;2023-02-28T02:06:45;103228.34;;;1.49;89.56
71964;BME280;59834;52.124;5.422;2023-02-28T02:09:13;103225.75;;;1.49;88.69
71964;BME280;59834;52.124;5.422;2023-02-28T02:11:42;103222.31;;;1.50;88.97
71964;BME280;59834;52.124;5.422;2023-02-28T02:16:59;103222.31;;;1.50;89.36
71964;BME280;59834;52.124;5.422;2023-02-28T02:28:26;103221.47;;;1.51;89.73
71964;BME280;59834;52.124;5.422;2023-02-28T02:31:26;103224.03;;;1.51;88.95
71964;BME280;59834;52.124;5.422;2023-02-28T02:34:10;103228.38;;;1.52;90.02
71964;BME280;59834;52.124;5.422;2023-02-28T02:40:00;103224.06;;;1.54;89.93
71964;BME280;59834;52.124;5.422;2023-02-28T02:42:53;103215.50;;;1.55;89.44
71964;BME280;59834;52.124;5.422;2023-02-28T02:48:27;103229.28;;;1.57;90.13
71964;BME280;59834;52.124;5.422;2023-02-28T02:51:00;103228.47;;;1.58;89.73
71964;BME280;59834;52.124;5.422;2023-02-28T02:53:32;103222.44;;;1.59;89.96
71964;BME280;59834;52.124;5.422;2023-02-28T02:56:01;103231.94;;;1.61;89.97
71964;BME280;59834;52.124;5.422;2023-02-28T02:58:32;103223.34;;;1.62;90.55
71964;BME280;59834;52.124;5.422;2023-02-28T03:01:02;103223.34;;;1.64;90.59
71964;BME280;59834;52.124;5.422;2023-02-28T03:03:31;103225.91;;;1.64;90.57
71964;BME280;59834;52.124;5.422;2023-02-28T03:06:00;103222.50;;;1.65;90.39
71964;BME280;59834;52.124;5.422;2023-02-28T03:08:29;103223.38;;;1.67;91.33
71964;BME280;59834;52.124;5.422;2023-02-28T03:11:02;103234.59;;;1.69;91.02
71964;BME280;59834;52.124;5.422;2023-02-28T03:16:36;103229.44;;;1.71;91.74
71964;BME280;59834;52.124;5.422;2023-02-28T03:19:17;103227.75;;;1.71;91.02
71964;BME280;59834;52.124;5.422;2023-02-28T03:27:58;103223.41;;;1.70;92.34
71964;BME280;59834;52.124;5.422;2023-02-28T03:30:31;103223.41;;;1.70;92.61
71964;BME280;59834;52.124;5.422;2023-02-28T03:33:12;103228.59;;;1.70;92.34
71964;BME280;59834;52.124;5.422;2023-02-28T03:35:48;103225.13;;;1.70;92.04
71964;BME280;59834;52.124;5.422;2023-02-28T03:38:24;103234.59;;;1.69;92.21
71964;BME280;59834;52.124;5.422;2023-02-28T03:41:02;103236.28;;;1.67;92.20
71964;BME280;59834;52.124;5.422;2023-02-28T03:43:35;103238.88;;;1.65;92.64
71964;BME280;59834;52.124;5.422;2023-02-28T03:46:08;103242.28;;;1.63;92.27
71964;BME280;59834;52.124;5.422;2023-02-28T03:48:51;103242.22;;;1.60;92.92
71964;BME280;59834;52.124;5.422;2023-02-28T03:51:19;103240.47;;;1.57;93.09
71964;BME280;59834;52.124;5.422;2023-02-28T03:53:53;103246.50;;;1.56;93.39
71964;BME280;59834;52.124;5.422;2023-02-28T03:56:31;103252.47;;;1.54;93.32
71964;BME280;59834;52.124;5.422;2023-02-28T04:01:36;103245.59;;;1.51;92.99
71964;BME280;59834;52.124;5.422;2023-02-28T04:04:04;103248.16;;;1.51;92.19
71964;BME280;59834;52.124;5.422;2023-02-28T04:06:33;103253.31;;;1.51;92.49
71964;BME280;59834;52.124;5.422;2023-02-28T04:09:01;103242.09;;;1.51;91.44
71964;BME280;59834;52.124;5.422;2023-02-28T04:11:40;103243.81;;;1.49;91.65
71964;BME280;59834;52.124;5.422;2023-02-28T04:14:09;103246.34;;;1.46;89.70
71964;BME280;59834;52.124;5.422;2023-02-28T04:16:38;103250.66;;;1.45;88.21
71964;BME280;59834;52.124;5.422;2023-02-28T04:19:07;103251.53;;;1.46;85.96
71964;BME280;59834;52.124;5.422;2023-02-28T04:21:36;103242.00;;;1.43;84.56
71964;BME280;59834;52.124;5.422;2023-02-28T04:24:06;103250.56;;;1.40;83.35
71964;BME280;59834;52.124;5.422;2023-02-28T04:26:35;103250.53;;;1.37;83.64
71964;BME280;59834;52.124;5.422;2023-02-28T04:29:04;103251.38;;;1.36;83.09
71964;BME280;59834;52.124;5.422;2023-02-28T04:31:31;103262.53;;;1.34;82.90
71964;BME280;59834;52.124;5.422;2023-02-28T04:33:59;103264.19;;;1.30;82.77
71964;BME280;59834;52.124;5.422;2023-02-28T04:36:28;103262.47;;;1.29;82.94
71964;BME280;59834;52.124;5.422;2023-02-28T04:38:56;103260.72;;;1.27;82.75
71964;BME280;59834;52.124;5.422;2023-02-28T04:41:29;103263.28;;;1.25;83.01
71964;BME280;59834;52.124;5.422;2023-02-28T04:44:03;103264.16;;;1.24;83.57
71964;BME280;59834;52.124;5.422;2023-02-28T04:46:30;103270.16;;;1.26;83.14
71964;BME280;59834;52.124;5.422;2023-02-28T04:48:58;103269.25;;;1.23;82.88
71964;BME280;59834;52.124;5.422;2023-02-28T04:51:26;103267.50;;;1.20;83.43
71964;BME280;59834;52.124;5.422;2023-02-28T04:53:54;103256.31;;;1.18;83.40
71964;BME280;59834;52.124;5.422;2023-02-28T04:56:24;103262.28;;;1.15;83.69
71964;BME280;59834;52.124;5.422;2023-02-28T04:58:54;103271.69;;;1.13;84.10
71964;BME280;59834;52.124;5.422;2023-02-28T05:01:38;103266.50;;;1.09;83.08
71964;BME280;59834;52.124;5.422;2023-02-28T05:04:06;103266.38;;;1.03;84.16
71964;BME280;59834;52.124;5.422;2023-02-28T05:06:33;103268.06;;;0.99;85.41
71964;BME280;59834;52.124;5.422;2023-02-28T05:09:00;103262.00;;;0.97;85.01
71964;BME280;59834;52.124;5.422;2023-02-28T05:11:31;103263.72;;;0.95;85.70
71964;BME280;59834;52.124;5.422;2023-02-28T05:14:11;103257.63;;;0.91;87.08
71964;BME280;59834;52.124;5.422;2023-02-28T05:16:38;103265.31;;;0.88;87.54
71964;BME280;59834;52.124;5.422;2023-02-28T05:19:06;103267.84;;;0.85;88.09
71964;BME280;59834;52.124;5.422;2023-02-28T05:21:47;103266.06;;;0.81;88.77
71964;BME280;59834;52.124;5.422;2023-02-28T05:24:15;103278.97;;;0.81;88.33
71964;BME280;59834;52.124;5.422;2023-02-28T05:26:42;103274.59;;;0.77;89.65
71964;BME280;59834;52.124;5.422;2023-02-28T05:29:10;103268.53;;;0.75;89.37
71964;BME280;59834;52.124;5.422;2023-02-28T05:31:36;103276.28;;;0.75;89.17
71964;BME280;59834;52.124;5.422;2023-02-28T05:34:03;103275.41;;;0.75;89.61
71964;BME280;59834;52.124;5.422;2023-02-28T05:36:33;103271.06;;;0.74;89.88
71964;BME280;59834;52.124;5.422;2023-02-28T05:39:05;103269.41;;;0.74;90.42
71964;BME280;59834;52.124;5.422;2023-02-28T05:41:32;103266.81;;;0.74;90.67
71964;BME280;59834;52.124;5.422;2023-02-28T05:44:00;103270.25;;;0.75;89.95
71964;BME280;59834;52.124;5.422;2023-02-28T05:46:29;103260.81;;;0.77;90.92
71964;BME280;59834;52.124;5.422;2023-02-28T05:48:59;103268.53;;;0.75;90.99
71964;BME280;59834;52.124;5.422;2023-02-28T05:51:28;103272.03;;;0.77;90.56
71964;BME280;59834;52.124;5.422;2023-02-28T05:54:00;103272.84;;;0.76;90.64
71964;BME280;59834;52.124;5.422;2023-02-28T05:56:28;103273.75;;;0.78;90.90
71964;BME280;59834;52.124;5.422;2023-02-28T05:58:57;103272.78;;;0.72;91.23
71964;BME280;59834;52.124;5.422;2023-02-28T06:01:43;103271.88;;;0.69;91.23
71964;BME280;59834;52.124;5.422;2023-02-28T06:04:18;103265.91;;;0.72;91.66
71964;BME280;59834;52.124;5.422;2023-02-28T06:06:58;103271.91;;;0.71;91.26
71964;BME280;59834;52.124;5.422;2023-02-28T06:09:33;103265.88;;;0.69;92.00
71964;BME280;59834;52.124;5.422;2023-02-28T06:12:09;103270.94;;;0.64;92.36
71964;BME280;59834;52.124;5.422;2023-02-28T06:14:36;103273.53;;;0.64;93.00
71964;BME280;59834;52.124;5.422;2023-02-28T06:17:05;103268.31;;;0.61;93.00
71964;BME280;59834;52.124;5.422;2023-02-28T06:19:33;103268.31;;;0.61;92.30
71964;BME280;59834;52.124;5.422;2023-02-28T06:22:01;103266.56;;;0.60;92.53
71964;BME280;59834;52.124;5.422;2023-02-28T06:24:33;103258.72;;;0.53;93.29
71964;BME280;59834;52.124;5.422;2023-02-28T06:27:06;103256.13;;;0.51;92.91
71964;BME280;59834;52.124;5.422;2023-02-28T06:33:44;103263.97;;;0.59;93.32
71964;BME280;59834;52.124;5.422;2023-02-28T06:36:16;103267.41;;;0.58;92.95
71964;BME280;59834;52.124;5.422;2023-02-28T06:38:47;103263.91;;;0.56;93.97
71964;BME280;59834;52.124;5.422;2023-02-28T06:41:24;103264.78;;;0.55;93.17
71964;BME280;59834;52.124;5.422;2023-02-28T06:47:53;103263.97;;;0.59;94.57
71964;BME280;59834;52.124;5.422;2023-02-28T06:50:19;103263.19;;;0.63;93.74
71964;BME280;59834;52.124;5.422;2023-02-28T06:52:49;103265.84;;;0.67;94.35
71964;BME280;59834;52.124;5.422;2023-02-28T06:55:20;103271.03;;;0.69;94.82
71964;BME280;59834;52.124;5.422;2023-02-28T06:57:47;103275.31;;;0.70;94.71
71964;BME280;59834;52.124;5.422;2023-02-28T07:00:15;103271.06;;;0.72;95.28
71964;BME280;59834;52.124;5.422;2023-02-28T07:02:42;103284.91;;;0.77;94.46
71964;BME280;59834;52.124;5.422;2023-02-28T07:05:09;103286.53;;;0.74;95.51
71964;BME280;59834;52.124;5.422;2023-02-28T07:07:39;103286.53;;;0.74;95.07
71964;BME280;59834;52.124;5.422;2023-02-28T07:10:12;103284.91;;;0.77;95.24
71964;BME280;59834;52.124;5.422;2023-02-28T07:12:46;103277.19;;;0.80;95.69
71964;BME280;59834;52.124;5.422;2023-02-28T07:15:21;103285.84;;;0.84;95.87
71964;BME280;59834;52.124;5.422;2023-02-28T07:17:49;103281.59;;;0.86;95.07
71964;BME280;59834;52.124;5.422;2023-02-28T07:20:17;103273.97;;;0.92;95.46
71964;BME280;59834;52.124;5.422;2023-02-28T07:22:50;103282.63;;;0.96;95.55
71964;BME280;59834;52.124;5.422;2023-02-28T07:25:29;103283.53;;;0.98;95.06
71964;BME280;59834;52.124;5.422;2023-02-28T07:28:02;103293.84;;;0.99;95.30
71964;BME280;59834;52.124;5.422;2023-02-28T07:30:41;103303.31;;;1.00;96.29
71964;BME280;59834;52.124;5.422;2023-02-28T07:33:13;103288.78;;;1.07;95.50
71964;BME280;59834;52.124;5.422;2023-02-28T07:35:45;103280.31;;;1.14;95.67
71964;BME280;59834;52.124;5.422;2023-02-28T07:38:21;103283.81;;;1.17;95.84
71964;BME280;59834;52.124;5.422;2023-02-28T07:40:57;103286.41;;;1.19;95.95
71964;BME280;59834;52.124;5.422;2023-02-28T07:43:29;103297.69;;;1.26;96.05
71964;BME280;59834;52.124;5.422;2023-02-28T07:46:12;103295.97;;;1.26;95.28
71964;BME280;59834;52.124;5.422;2023-02-28T07:49:09;103295.16;;;1.30;95.18
71964;BME280;59834;52.124;5.422;2023-02-28T07:51:39;103299.50;;;1.31;95.16
71964;BME280;59834;52.124;5.422;2023-02-28T07:54:10;103302.94;;;1.33;95.69
71964;BME280;59834;52.124;5.422;2023-02-28T07:56:41;103303.81;;;1.32;94.80
71964;BME280;59834;52.124;5.422;2023-02-28T07:59:12;103300.41;;;1.36;95.52
71964;BME280;59834;52.124;5.422;2023-02-28T08:01:44;103295.44;;;1.49;95.36
71964;BME280;59834;52.124;5.422;2023-02-28T08:04:15;103291.13;;;1.49;94.64
71964;BME280;59834;52.124;5.422;2023-02-28T08:06:44;103304.03;;;1.49;94.64
71964;BME280;59834;52.124;5.422;2023-02-28T08:09:15;103319.53;;;1.51;94.78
71964;BME280;59834;52.124;5.422;2023-02-28T08:11:47;103319.53;;;1.48;94.72
71964;BME280;59834;52.124;5.422;2023-02-28T08:14:16;103325.66;;;1.56;94.63
71964;BME280;59834;52.124;5.422;2023-02-28T08:16:48;103322.25;;;1.58;94.87
71964;BME280;59834;52.124;5.422;2023-02-28T08:39:57;103315.00;;;2.00;91.77
71964;BME280;59834;52.124;5.422;2023-02-28T08:42:41;103327.91;;;1.97;90.12
71964;BME280;59834;52.124;5.422;2023-02-28T08:49:21;103310.78;;;2.05;88.82
71964;BME280;59834;52.124;5.422;2023-02-28T08:51:47;103303.97;;;2.13;86.84
71964;BME280;59834;52.124;5.422;2023-02-28T08:54:14;103300.59;;;2.20;86.62
71964;BME280;59834;52.124;5.422;2023-02-28T08:56:46;103299.00;;;2.28;85.70
71964;BME280;59834;52.124;5.422;2023-02-28T08:59:15;103313.59;;;2.28;84.98
71964;BME280;59834;52.124;5.422;2023-02-28T09:01:42;103304.19;;;2.31;83.78
71964;BME280;59834;52.124;5.422;2023-02-28T09:04:10;103309.41;;;2.38;82.35
71964;BME280;59834;52.124;5.422;2023-02-28T09:06:45;103310.34;;;2.46;81.49
71964;BME280;59834;52.124;5.422;2023-02-28T09:13:18;103295.31;;;3.04;75.13
71964;BME280;59834;52.124;5.422;2023-02-28T09:16:14;103305.06;;;3.39;75.24
71964;BME280;59834;52.124;5.422;2023-02-28T09:18:48;103305.22;;;3.71;72.60
71964;BME280;59834;52.124;5.422;2023-02-28T09:21:17;103304.38;;;3.76;69.38
71964;BME280;59834;52.124;5.422;2023-02-28T09:23:50;103304.31;;;3.69;68.43
71964;BME280;59834;52.124;5.422;2023-02-28T09:26:22;103298.22;;;3.50;65.04
71964;BME280;59834;52.124;5.422;2023-02-28T09:29:08;103295.63;;;3.51;66.27
71964;BME280;59834;52.124;5.422;2023-02-28T09:31:39;103306.81;;;3.43;64.57
71964;BME280;59834;52.124;5.422;2023-02-28T09:34:08;103305.00;;;3.29;62.54
71964;BME280;59834;52.124;5.422;2023-02-28T09:36:41;103310.16;;;3.26;62.87
71964;BME280;59834;52.124;5.422;2023-02-28T09:39:13;103313.63;;;3.31;60.70
71964;BME280;59834;52.124;5.422;2023-02-28T09:41:48;103315.38;;;3.33;59.71
71964;BME280;59834;52.124;5.422;2023-02-28T09:44:36;103308.44;;;3.25;60.33
71964;BME280;59834;52.124;5.422;2023-02-28T09:49:47;103320.53;;;3.29;57.83
71964;BME280;59834;52.124;5.422;2023-02-28T09:52:27;103313.69;;;3.39;58.60
71964;BME280;59834;52.124;5.422;2023-02-28T09:55:37;103312.09;;;3.63;58.49
71964;BME280;59834;52.124;5.422;2023-02-28T09:58:26;103315.59;;;3.75;57.05
71964;BME280;59834;52.124;5.422;2023-02-28T10:01:09;103310.47;;;3.88;56.53
71964;BME280;59834;52.124;5.422;2023-02-28T10:03:55;103304.53;;;4.16;57.27
71964;BME280;59834;52.124;5.422;2023-02-28T10:06:28;103308.03;;;4.40;57.19
71964;BME280;59834;52.124;5.422;2023-02-28T10:09:05;103305.44;;;4.47;56.29
71964;BME280;59834;52.124;5.422;2023-02-28T10:11:37;103301.13;;;4.54;55.58
71964;BME280;59834;52.124;5.422;2023-02-28T10:14:12;103296.81;;;4.65;53.41
71964;BME280;59834;52.124;5.422;2023-02-28T10:16:44;103295.97;;;4.82;51.42
71964;BME280;59834;52.124;5.422;2023-02-28T10:19:22;103293.38;;;5.00;52.15
71964;BME280;59834;52.124;5.422;2023-02-28T10:21:59;103282.94;;;5.12;51.48
71964;BME280;59834;52.124;5.422;2023-02-28T10:24:35;103282.94;;;5.18;50.72
71964;BME280;59834;52.124;5.422;2023-02-28T10:27:24;103287.28;;;5.15;51.63
71964;BME280;59834;52.124;5.422;2023-02-28T10:29:53;103284.69;;;5.09;49.81
71964;BME280;59834;52.124;5.422;2023-02-28T10:32:23;103288.19;;;4.91;49.22
71964;BME280;59834;52.124;5.422;2023-02-28T10:34:53;103284.72;;;4.95;49.03
71964;BME280;59834;52.124;5.422;2023-02-28T10:37:23;103277.78;;;4.94;49.48
71964;BME280;59834;52.124;5.422;2023-02-28T10:39:49;103283.00;;;4.88;50.19
71964;BME280;59834;52.124;5.422;2023-02-28T10:42:25;103296.81;;;4.85;50.49
71964;BME280;59834;52.124;5.422;2023-02-28T10:45:16;103291.63;;;4.75;50.62
71964;BME280;59834;52.124;5.422;2023-02-28T10:47:51;103293.34;;;4.76;49.94
71964;BME280;59834;52.124;5.422;2023-02-28T10:50:30;103283.84;;;4.61;49.28
71964;BME280;59834;52.124;5.422;2023-02-28T11:00:59;103271.75;;;4.73;47.47
71964;BME280;59834;52.124;5.422;2023-02-28T11:03:31;103275.22;;;4.66;48.56
71964;BME280;59834;52.124;5.422;2023-02-28T11:06:04;103263.97;;;4.70;48.60
71964;BME280;59834;52.124;5.422;2023-02-28T11:08:31;103276.06;;;4.84;48.16
71964;BME280;59834;52.124;5.422;2023-02-28T11:11:05;103261.38;;;4.67;50.02
71964;BME280;59834;52.124;5.422;2023-02-28T11:13:35;103264.81;;;4.79;49.84
71964;BME280;59834;52.124;5.422;2023-02-28T11:16:08;103254.44;;;4.85;49.34
71964;BME280;59834;52.124;5.422;2023-02-28T11:21:20;103258.78;;;4.80;47.78
71964;BME280;59834;52.124;5.422;2023-02-28T11:23:49;103255.31;;;4.82;48.66
71964;BME280;59834;52.124;5.422;2023-02-28T11:26:35;103252.72;;;4.84;47.69
71964;BME280;59834;52.124;5.422;2023-02-28T11:29:19;103244.94;;;4.84;48.42
71964;BME280;59834;52.124;5.422;2023-02-28T11:34:35;103250.13;;;4.87;47.63
71964;BME280;59834;52.124;5.422;2023-02-28T11:37:04;103243.19;;;4.92;47.31
71964;BME280;59834;52.124;5.422;2023-02-28T11:39:33;103246.66;;;4.97;47.59
71964;BME280;59834;52.124;5.422;2023-02-28T11:45:03;103230.19;;;5.06;48.45
71964;BME280;59834;52.124;5.422;2023-02-28T11:47:54;103225.00;;;5.04;47.39
71964;BME280;59834;52.124;5.422;2023-02-28T11:53:35;103220.63;;;5.25;47.81
71964;BME280;59834;52.124;5.422;2023-02-28T11:59:01;103222.41;;;5.10;48.00
71964;BME280;59834;52.124;5.422;2023-02-28T12:09:56;103227.59;;;5.13;46.47
71964;BME280;59834;52.124;5.422;2023-02-28T12:26:47;103212.78;;;5.41;46.33
71964;BME280;59834;52.124;5.422;2023-02-28T12:29:23;103209.31;;;5.44;45.89
71964;BME280;59834;52.124;5.422;2023-02-28T12:32:12;103204.09;;;5.50;46.17
71964;BME280;59834;52.124;5.422;2023-02-28T12:34:44;103186.78;;;5.41;46.27
71964;BME280;59834;52.124;5.422;2023-02-28T12:37:17;103193.72;;;5.44;46.13
71964;BME280;59834;52.124;5.422;2023-02-28T12:39:50;103203.22;;;5.48;45.98
71964;BME280;59834;52.124;5.422;2023-02-28T12:42:25;103192.81;;;5.48;45.95
71964;BME280;59834;52.124;5.422;2023-02-28T12:47:41;103186.72;;;5.58;46.09
71964;BME280;59834;52.124;5.422;2023-02-28T12:50:11;103181.47;;;5.66;46.73
71964;BME280;59834;52.124;5.422;2023-02-28T12:52:56;103188.41;;;5.67;46.26
71964;BME280;59834;52.124;5.422;2023-02-28T12:55:35;103185.75;;;5.78;46.25
71964;BME280;59834;52.124;5.422;2023-02-28T12:58:33;103189.25;;;5.74;46.43
71964;BME280;59834;52.124;5.422;2023-02-28T13:09:54;103172.75;;;5.78;46.16
71964;BME280;59834;52.124;5.422;2023-02-28T13:12:22;103159.75;;;5.78;45.16
71964;BME280;59834;52.124;5.422;2023-02-28T13:14:50;103167.53;;;5.84;45.63
71964;BME280;59834;52.124;5.422;2023-02-28T13:17:21;103167.47;;;5.88;45.83
71964;BME280;59834;52.124;5.422;2023-02-28T13:27:52;103164.13;;;5.74;44.06
71964;BME280;59834;52.124;5.422;2023-02-28T13:33:29;103155.47;;;5.66;44.35
71964;BME280;59834;52.124;5.422;2023-02-28T13:38:45;103155.47;;;5.66;43.88
71964;BME280;59834;52.124;5.422;2023-02-28T13:44:16;103150.22;;;5.77;44.95
71964;BME280;59834;52.124;5.422;2023-02-28T13:51:49;103141.56;;;5.76;44.36
71964;BME280;59834;52.124;5.422;2023-02-28T13:57:29;103143.28;;;5.79;43.02
71964;BME280;59834;52.124;5.422;2023-02-28T14:02:51;103139.78;;;5.86;42.28
71964;BME280;59834;52.124;5.422;2023-02-28T14:05:23;103135.50;;;5.79;42.46
71964;BME280;59834;52.124;5.422;2023-02-28T14:08:22;103127.69;;;5.82;43.93
71964;BME280;59834;52.124;5.422;2023-02-28T14:11:03;103127.75;;;5.74;43.57
71964;BME280;59834;52.124;5.422;2023-02-28T14:13:43;103125.94;;;5.79;43.22
71964;BME280;59834;52.124;5.422;2023-02-28T14:16:20;103120.78;;;5.75;43.52
71964;BME280;59834;52.124;5.422;2023-02-28T14:18:51;103124.22;;;5.80;43.71
71964;BME280;59834;52.124;5.422;2023-02-28T14:21:27;103119.91;;;5.79;42.79
71964;BME280;59834;52.124;5.422;2023-02-28T14:24:03;103115.56;;;5.81;43.20
71964;BME280;59834;52.124;5.422;2023-02-28T14:37:53;103102.47;;;5.90;43.43
71964;BME280;59834;52.124;5.422;2023-02-28T14:40:26;103109.44;;;5.91;44.50
71964;BME280;59834;52.124;5.422;2023-02-28T14:42:58;103112.00;;;5.97;44.69
71964;BME280;59834;52.124;5.422;2023-02-28T14:45:29;103103.38;;;5.90;45.11
71964;BME280;59834;52.124;5.422;2023-02-28T14:48:01;103107.66;;;5.96;43.91
71964;BME280;59834;52.124;5.422;2023-02-28T14:50:31;103107.69;;;5.95;43.57
71964;BME280;59834;52.124;5.422;2023-02-28T14:52:59;103106.84;;;5.94;43.01
71964;BME280;59834;52.124;5.422;2023-02-28T14:55:31;103107.75;;;5.84;42.89
71964;BME280;59834;52.124;5.422;2023-02-28T14:58:00;103106.91;;;5.80;43.36
71964;BME280;59834;52.124;5.422;2023-02-28T15:00:33;103108.66;;;5.78;44.51
71964;BME280;59834;52.124;5.422;2023-02-28T15:03:11;103112.06;;;5.85;43.66
71964;BME280;59834;52.124;5.422;2023-02-28T15:05:51;103103.38;;;5.89;45.07
71964;BME280;59834;52.124;5.422;2023-02-28T15:08:17;103105.09;;;5.93;44.38
71964;BME280;59834;52.124;5.422;2023-02-28T15:10:58;103103.38;;;5.94;44.43
71964;BME280;59834;52.124;5.422;2023-02-28T15:13:43;103099.94;;;5.85;45.35
71964;BME280;59834;52.124;5.422;2023-02-28T15:16:20;103106.84;;;5.88;46.23
71964;BME280;59834;52.124;5.422;2023-02-28T15:21:22;103102.59;;;5.76;44.49
71964;BME280;59834;52.124;5.422;2023-02-28T15:26:32;103112.97;;;5.78;44.48
71964;BME280;59834;52.124;5.422;2023-02-28T15:29:03;103112.94;;;5.84;44.40
71964;BME280;59834;52.124;5.422;2023-02-28T15:31:39;103110.34;;;5.82;45.41
71964;BME280;59834;52.124;5.422;2023-02-28T15:34:29;103111.19;;;5.83;44.11
71964;BME280;59834;52.124;5.422;2023-02-28T15:41:24;103115.63;;;5.72;45.08
71964;BME280;59834;52.124;5.422;2023-02-28T15:54:48;103098.41;;;5.57;45.06
71964;BME280;59834;52.124;5.422;2023-02-28T15:57:38;103097.53;;;5.58;45.49
71964;BME280;59834;52.124;5.422;2023-02-28T16:00:20;103092.34;;;5.53;45.28
71964;BME280;59834;52.124;5.422;2023-02-28T16:03:27;103095.00;;;5.50;45.29
71964;BME280;59834;52.124;5.422;2023-02-28T16:09:22;103095.91;;;5.40;44.37
71964;BME280;59834;52.124;5.422;2023-02-28T16:12:01;103095.03;;;5.39;45.93
71964;BME280;59834;52.124;5.422;2023-02-28T16:14:36;103101.13;;;5.37;45.09
71964;BME280;59834;52.124;5.422;2023-02-28T16:17:17;103109.78;;;5.33;44.72
71964;BME280;59834;52.124;5.422;2023-02-28T16:19:53;103110.69;;;5.26;45.51
71964;BME280;59834;52.124;5.422;2023-02-28T16:22:21;103112.44;;;5.25;46.44
71964;BME280;59834;52.124;5.422;2023-02-28T16:24:48;103116.78;;;5.22;46.47
71964;BME280;59834;52.124;5.422;2023-02-28T16:27:33;103113.34;;;5.16;46.17
71964;BME280;59834;52.124;5.422;2023-02-28T16:30:06;103118.53;;;5.15;46.73
71964;BME280;59834;52.124;5.422;2023-02-28T16:32:40;103114.22;;;5.11;47.09
71964;BME280;59834;52.124;5.422;2023-02-28T16:35:12;103115.09;;;5.08;48.58
71964;BME280;59834;52.124;5.422;2023-02-28T16:37:42;103116.88;;;5.03;48.14